sensor_id;sensor_type;location;lat;lon;timestamp;temperature;humidity
66119;DHT22;52912;48.564;9.302;2023-04-24T00:00:37;12.11;76.02
66119;DHT22;52912;48.564;9.302;2023-04-24T00:03:02;12.16;76.37
66119;DHT22;52912;48.564;9.302;2023-04-24T00:05:29;12.12;76.11
66119;DHT22;52912;48.564;9.302;2023-04-24T00:07:55;12.13;76.69
66119;DHT22;52912;48.564;9.302;2023-04-24T00:10:20;12.12;76.45
66119;DHT22;52912;48.564;9.302;2023-04-24T00:12:45;12.06;76.81
66119;DHT22;52912;48.564;9.302;2023-04-24T00:15:11;12.01;76.77
66119;DHT22;52912;48.564;9.302;2023-04-24T00:17:37;12.01;77.04
66119;DHT22;52912;48.564;9.302;2023-04-24T00:20:03;12.04;76.78
66119;DHT22;52912;48.564;9.302;2023-04-24T00:22:30;11.94;77.25
66119;DHT22;52912;48.564;9.302;2023-04-24T00:24:56;11.87;77.67
66119;DHT22;52912;48.564;9.302;2023-04-24T00:27:21;11.87;77.38
66119;DHT22;52912;48.564;9.302;2023-04-24T00:29:47;11.88;77.40
66119;DHT22;52912;48.564;9.302;2023-04-24T00:32:13;11.89;77.72
66119;DHT22;52912;48.564;9.302;2023-04-24T00:34:38;11.88;78.05
66119;DHT22;52912;48.564;9.302;2023-04-24T00:37:04;11.85;78.31
66119;DHT22;52912;48.564;9.302;2023-04-24T00:39:30;11.82;78.58
66119;DHT22;52912;48.564;9.302;2023-04-24T00:41:56;11.78;78.69
66119;DHT22;52912;48.564;9.302;2023-04-24T00:44:22;11.71;79.05
66119;DHT22;52912;48.564;9.302;2023-04-24T00:46:48;11.73;79.19
66119;DHT22;52912;48.564;9.302;2023-04-24T00:49:14;11.67;80.13
66119;DHT22;52912;48.564;9.302;2023-04-24T00:51:40;11.73;79.97
66119;DHT22;52912;48.564;9.302;2023-04-24T00:54:05;11.74;79.83
66119;DHT22;52912;48.564;9.302;2023-04-24T00:56:32;11.68;80.07
66119;DHT22;52912;48.564;9.302;2023-04-24T00:58:58;11.64;79.98
66119;DHT22;52912;48.564;9.302;2023-04-24T01:01:24;11.61;80.34
66119;DHT22;52912;48.564;9.302;2023-04-24T01:03:52;11.67;80.15
66119;DHT22;52912;48.564;9.302;2023-04-24T01:06:19;11.67;80.37
66119;DHT22;52912;48.564;9.302;2023-04-24T01:08:45;11.66;80.26
66119;DHT22;52912;48.564;9.302;2023-04-24T01:11:11;11.61;80.69
66119;DHT22;52912;48.564;9.302;2023-04-24T01:13:39;11.59;80.63
66119;DHT22;52912;48.564;9.302;2023-04-24T01:16:05;11.46;80.85
66119;DHT22;52912;48.564;9.302;2023-04-24T01:18:31;11.46;80.93
66119;DHT22;52912;48.564;9.302;2023-04-24T01:20:58;11.49;81.42
66119;DHT22;52912;48.564;9.302;2023-04-24T01:23:25;11.50;81.82
66119;DHT22;52912;48.564;9.302;2023-04-24T01:25:51;11.40;81.94
66119;DHT22;52912;48.564;9.302;2023-04-24T01:28:17;11.30;82.98
66119;DHT22;52912;48.564;9.302;2023-04-24T01:30:43;11.25;82.24
66119;DHT22;52912;48.564;9.302;2023-04-24T01:33:09;11.34;82.82
66119;DHT22;52912;48.564;9.302;2023-04-24T01:35:35;11.26;82.74
66119;DHT22;52912;48.564;9.302;2023-04-24T01:38:00;11.09;83.36
66119;DHT22;52912;48.564;9.302;2023-04-24T01:40:27;11.15;84.28
66119;DHT22;52912;48.564;9.302;2023-04-24T01:42:53;11.01;84.95
66119;DHT22;52912;48.564;9.302;2023-04-24T01:45:18;11.11;84.69
66119;DHT22;52912;48.564;9.302;2023-04-24T01:47:45;11.02;84.94
66119;DHT22;52912;48.564;9.302;2023-04-24T01:50:10;10.98;85.89
66119;DHT22;52912;48.564;9.302;2023-04-24T01:52:36;10.77;85.72
66119;DHT22;52912;48.564;9.302;2023-04-24T01:55:01;10.71;85.65
66119;DHT22;52912;48.564;9.302;2023-04-24T01:57:28;10.77;85.55
66119;DHT22;52912;48.564;9.302;2023-04-24T01:59:54;10.68;85.91
66119;DHT22;52912;48.564;9.302;2023-04-24T02:02:19;10.70;85.99
66119;DHT22;52912;48.564;9.302;2023-04-24T02:04:45;10.87;86.08
66119;DHT22;52912;48.564;9.302;2023-04-24T02:07:10;10.82;85.67
66119;DHT22;52912;48.564;9.302;2023-04-24T02:09:36;10.81;86.21
66119;DHT22;52912;48.564;9.302;2023-04-24T02:12:01;10.77;85.60
66119;DHT22;52912;48.564;9.302;2023-04-24T02:14:28;10.77;86.54
66119;DHT22;52912;48.564;9.302;2023-04-24T02:16:53;10.81;87.66
66119;DHT22;52912;48.564;9.302;2023-04-24T02:19:19;10.84;86.47
66119;DHT22;52912;48.564;9.302;2023-04-24T02:21:44;10.82;86.75
66119;DHT22;52912;48.564;9.302;2023-04-24T02:24:10;10.85;86.77
66119;DHT22;52912;48.564;9.302;2023-04-24T02:26:35;10.88;86.07
66119;DHT22;52912;48.564;9.302;2023-04-24T02:29:01;10.87;86.05
66119;DHT22;52912;48.564;9.302;2023-04-24T02:31:27;10.84;87.56
66119;DHT22;52912;48.564;9.302;2023-04-24T02:33:53;10.84;87.64
66119;DHT22;52912;48.564;9.302;2023-04-24T02:36:18;10.78;87.27
66119;DHT22;52912;48.564;9.302;2023-04-24T02:38:44;10.75;87.28
66119;DHT22;52912;48.564;9.302;2023-04-24T02:41:09;10.80;86.62
66119;DHT22;52912;48.564;9.302;2023-04-24T02:43:35;10.81;87.01
66119;DHT22;52912;48.564;9.302;2023-04-24T02:46:00;10.70;87.33
66119;DHT22;52912;48.564;9.302;2023-04-24T02:48:27;10.68;87.06
66119;DHT22;52912;48.564;9.302;2023-04-24T02:50:52;10.67;86.98
66119;DHT22;52912;48.564;9.302;2023-04-24T02:53:18;10.72;86.94
66119;DHT22;52912;48.564;9.302;2023-04-24T02:55:43;10.74;86.40
66119;DHT22;52912;48.564;9.302;2023-04-24T02:58:09;10.80;85.91
66119;DHT22;52912;48.564;9.302;2023-04-24T03:00:34;10.82;86.22
66119;DHT22;52912;48.564;9.302;2023-04-24T03:03:00;10.80;86.19
66119;DHT22;52912;48.564;9.302;2023-04-24T03:05:26;10.77;86.14
66119;DHT22;52912;48.564;9.302;2023-04-24T03:07:52;10.77;86.78
66119;DHT22;52912;48.564;9.302;2023-04-24T03:10:17;10.87;87.13
66119;DHT22;52912;48.564;9.302;2023-04-24T03:12:43;10.94;86.67
66119;DHT22;52912;48.564;9.302;2023-04-24T03:15:09;10.87;86.90
66119;DHT22;52912;48.564;9.302;2023-04-24T03:17:35;10.80;87.01
66119;DHT22;52912;48.564;9.302;2023-04-24T03:20:00;10.77;88.46
66119;DHT22;52912;48.564;9.302;2023-04-24T03:22:27;10.63;89.90
66119;DHT22;52912;48.564;9.302;2023-04-24T03:24:52;10.63;90.46
66119;DHT22;52912;48.564;9.302;2023-04-24T03:27:18;10.64;91.02
66119;DHT22;52912;48.564;9.302;2023-04-24T03:29:43;10.65;91.17
66119;DHT22;52912;48.564;9.302;2023-04-24T03:32:09;10.60;91.07
66119;DHT22;52912;48.564;9.302;2023-04-24T03:34:34;10.46;91.54
66119;DHT22;52912;48.564;9.302;2023-04-24T03:36:59;10.37;92.30
66119;DHT22;52912;48.564;9.302;2023-04-24T03:39:26;10.43;91.74
66119;DHT22;52912;48.564;9.302;2023-04-24T03:41:52;10.32;92.47
66119;DHT22;52912;48.564;9.302;2023-04-24T03:44:17;10.16;93.22
66119;DHT22;52912;48.564;9.302;2023-04-24T03:46:43;10.09;93.41
66119;DHT22;52912;48.564;9.302;2023-04-24T03:49:08;10.06;92.41
66119;DHT22;52912;48.564;9.302;2023-04-24T03:51:33;10.08;92.88
66119;DHT22;52912;48.564;9.302;2023-04-24T03:53:59;10.03;92.66
66119;DHT22;52912;48.564;9.302;2023-04-24T03:56:26;10.08;92.96
66119;DHT22;52912;48.564;9.302;2023-04-24T03:58:51;10.08;92.30
66119;DHT22;52912;48.564;9.302;2023-04-24T04:01:16;10.05;92.63
66119;DHT22;52912;48.564;9.302;2023-04-24T04:03:42;10.17;91.34
66119;DHT22;52912;48.564;9.302;2023-04-24T04:06:07;10.15;90.36
66119;DHT22;52912;48.564;9.302;2023-04-24T04:08:33;10.08;91.14
66119;DHT22;52912;48.564;9.302;2023-04-24T04:10:58;10.10;91.17
66119;DHT22;52912;48.564;9.302;2023-04-24T04:13:25;10.19;90.63
66119;DHT22;52912;48.564;9.302;2023-04-24T04:15:50;10.17;90.75
66119;DHT22;52912;48.564;9.302;2023-04-24T04:18:16;10.01;91.26
66119;DHT22;52912;48.564;9.302;2023-04-24T04:20:41;9.89;91.70
66119;DHT22;52912;48.564;9.302;2023-04-24T04:23:07;9.82;92.08
66119;DHT22;52912;48.564;9.302;2023-04-24T04:25:32;9.81;91.74
66119;DHT22;52912;48.564;9.302;2023-04-24T04:27:58;9.82;92.03
66119;DHT22;52912;48.564;9.302;2023-04-24T04:30:25;9.84;92.09
66119;DHT22;52912;48.564;9.302;2023-04-24T04:32:50;9.87;92.36
66119;DHT22;52912;48.564;9.302;2023-04-24T04:35:15;9.92;92.43
66119;DHT22;52912;48.564;9.302;2023-04-24T04:37:41;9.95;92.24
66119;DHT22;52912;48.564;9.302;2023-04-24T04:40:07;9.98;92.62
66119;DHT22;52912;48.564;9.302;2023-04-24T04:42:33;10.05;92.74
66119;DHT22;52912;48.564;9.302;2023-04-24T04:44:58;9.95;92.26
66119;DHT22;52912;48.564;9.302;2023-04-24T04:47:26;9.94;92.45
66119;DHT22;52912;48.564;9.302;2023-04-24T04:49:52;9.85;93.21
66119;DHT22;52912;48.564;9.302;2023-04-24T04:52:17;9.94;93.65
66119;DHT22;52912;48.564;9.302;2023-04-24T04:54:43;9.98;93.17
66119;DHT22;52912;48.564;9.302;2023-04-24T04:57:08;9.97;93.69
66119;DHT22;52912;48.564;9.302;2023-04-24T04:59:34;10.05;94.43
66119;DHT22;52912;48.564;9.302;2023-04-24T05:01:59;9.87;94.98
66119;DHT22;52912;48.564;9.302;2023-04-24T05:04:26;9.74;94.53
66119;DHT22;52912;48.564;9.302;2023-04-24T05:06:51;9.74;93.95
66119;DHT22;52912;48.564;9.302;2023-04-24T05:09:17;9.71;92.47
66119;DHT22;52912;48.564;9.302;2023-04-24T05:11:42;9.63;92.92
66119;DHT22;52912;48.564;9.302;2023-04-24T05:14:08;9.61;92.82
66119;DHT22;52912;48.564;9.302;2023-04-24T05:16:33;9.69;92.71
66119;DHT22;52912;48.564;9.302;2023-04-24T05:18:59;9.73;92.56
66119;DHT22;52912;48.564;9.302;2023-04-24T05:21:26;9.63;92.70
66119;DHT22;52912;48.564;9.302;2023-04-24T05:23:51;9.60;93.31
66119;DHT22;52912;48.564;9.302;2023-04-24T05:26:17;9.58;93.44
66119;DHT22;52912;48.564;9.302;2023-04-24T05:28:42;9.58;93.77
66119;DHT22;52912;48.564;9.302;2023-04-24T05:31:07;9.64;93.46
66119;DHT22;52912;48.564;9.302;2023-04-24T05:33:33;9.65;93.51
66119;DHT22;52912;48.564;9.302;2023-04-24T05:35:58;9.60;93.02
66119;DHT22;52912;48.564;9.302;2023-04-24T05:38:25;9.71;93.06
66119;DHT22;52912;48.564;9.302;2023-04-24T05:40:51;9.65;93.18
66119;DHT22;52912;48.564;9.302;2023-04-24T05:43:16;9.65;92.86
66119;DHT22;52912;48.564;9.302;2023-04-24T05:45:41;9.67;93.13
66119;DHT22;52912;48.564;9.302;2023-04-24T05:48:07;9.57;92.62
66119;DHT22;52912;48.564;9.302;2023-04-24T05:50:32;9.51;91.98
66119;DHT22;52912;48.564;9.302;2023-04-24T05:52:58;9.55;91.63
66119;DHT22;52912;48.564;9.302;2023-04-24T05:55:25;9.54;91.18
66119;DHT22;52912;48.564;9.302;2023-04-24T05:57:50;9.48;91.55
66119;DHT22;52912;48.564;9.302;2023-04-24T06:00:16;9.50;91.96
66119;DHT22;52912;48.564;9.302;2023-04-24T06:02:42;9.58;91.58
66119;DHT22;52912;48.564;9.302;2023-04-24T06:05:08;9.64;90.91
66119;DHT22;52912;48.564;9.302;2023-04-24T06:07:33;9.58;91.02
66119;DHT22;52912;48.564;9.302;2023-04-24T06:09:59;9.50;91.18
66119;DHT22;52912;48.564;9.302;2023-04-24T06:12:25;9.50;91.14
66119;DHT22;52912;48.564;9.302;2023-04-24T06:14:51;9.60;90.73
66119;DHT22;52912;48.564;9.302;2023-04-24T06:17:16;9.65;91.05
66119;DHT22;52912;48.564;9.302;2023-04-24T06:19:42;9.57;90.51
66119;DHT22;52912;48.564;9.302;2023-04-24T06:22:07;9.74;91.35
66119;DHT22;52912;48.564;9.302;2023-04-24T06:24:34;9.54;90.44
66119;DHT22;52912;48.564;9.302;2023-04-24T06:26:59;9.67;89.79
66119;DHT22;52912;48.564;9.302;2023-04-24T06:29:26;9.91;89.05
66119;DHT22;52912;48.564;9.302;2023-04-24T06:31:52;9.89;88.52
66119;DHT22;52912;48.564;9.302;2023-04-24T06:34:17;9.99;90.01
66119;DHT22;52912;48.564;9.302;2023-04-24T06:36:43;10.15;89.31
66119;DHT22;52912;48.564;9.302;2023-04-24T06:39:08;10.47;88.47
66119;DHT22;52912;48.564;9.302;2023-04-24T06:41:34;10.61;88.43
66119;DHT22;52912;48.564;9.302;2023-04-24T06:43:59;10.42;87.80
66119;DHT22;52912;48.564;9.302;2023-04-24T06:46:26;10.56;87.29
66119;DHT22;52912;48.564;9.302;2023-04-24T06:48:52;10.64;87.35
66119;DHT22;52912;48.564;9.302;2023-04-24T06:51:17;10.81;87.62
66119;DHT22;52912;48.564;9.302;2023-04-24T06:53:43;10.88;86.90
66119;DHT22;52912;48.564;9.302;2023-04-24T06:56:08;10.99;87.48
66119;DHT22;52912;48.564;9.302;2023-04-24T06:58:34;11.22;86.61
66119;DHT22;52912;48.564;9.302;2023-04-24T07:00:59;11.34;86.23
66119;DHT22;52912;48.564;9.302;2023-04-24T07:03:26;11.36;85.71
66119;DHT22;52912;48.564;9.302;2023-04-24T07:05:51;11.44;84.38
66119;DHT22;52912;48.564;9.302;2023-04-24T07:08:17;11.56;84.21
66119;DHT22;52912;48.564;9.302;2023-04-24T07:10:42;11.59;82.91
66119;DHT22;52912;48.564;9.302;2023-04-24T07:13:08;11.57;82.71
66119;DHT22;52912;48.564;9.302;2023-04-24T07:15:33;11.84;82.96
66119;DHT22;52912;48.564;9.302;2023-04-24T07:17:59;12.08;82.15
66119;DHT22;52912;48.564;9.302;2023-04-24T07:20:25;12.01;81.74
66119;DHT22;52912;48.564;9.302;2023-04-24T07:22:51;11.78;81.91
66119;DHT22;52912;48.564;9.302;2023-04-24T07:25:16;11.74;81.73
66119;DHT22;52912;48.564;9.302;2023-04-24T07:27:42;11.70;82.14
66119;DHT22;52912;48.564;9.302;2023-04-24T07:30:08;11.43;82.85
66119;DHT22;52912;48.564;9.302;2023-04-24T07:32:34;11.25;83.24
66119;DHT22;52912;48.564;9.302;2023-04-24T07:34:59;11.06;83.70
66119;DHT22;52912;48.564;9.302;2023-04-24T07:37:27;11.11;85.77
66119;DHT22;52912;48.564;9.302;2023-04-24T07:39:53;11.18;85.81
66119;DHT22;52912;48.564;9.302;2023-04-24T07:42:19;11.40;85.28
66119;DHT22;52912;48.564;9.302;2023-04-24T07:44:44;11.49;84.16
66119;DHT22;52912;48.564;9.302;2023-04-24T07:47:10;11.51;83.67
66119;DHT22;52912;48.564;9.302;2023-04-24T07:49:35;11.84;82.57
66119;DHT22;52912;48.564;9.302;2023-04-24T07:52:01;11.66;81.73
66119;DHT22;52912;48.564;9.302;2023-04-24T07:54:28;11.63;81.53
66119;DHT22;52912;48.564;9.302;2023-04-24T07:56:55;11.57;79.63
66119;DHT22;52912;48.564;9.302;2023-04-24T07:59:21;11.81;80.59
66119;DHT22;52912;48.564;9.302;2023-04-24T08:01:49;11.88;78.31
66119;DHT22;52912;48.564;9.302;2023-04-24T08:04:16;12.02;79.86
66119;DHT22;52912;48.564;9.302;2023-04-24T08:06:42;11.98;78.14
66119;DHT22;52912;48.564;9.302;2023-04-24T08:09:08;11.73;77.14
66119;DHT22;52912;48.564;9.302;2023-04-24T08:11:35;11.61;76.65
66119;DHT22;52912;48.564;9.302;2023-04-24T08:14:00;11.51;75.31
66119;DHT22;52912;48.564;9.302;2023-04-24T08:16:26;11.61;74.92
66119;DHT22;52912;48.564;9.302;2023-04-24T08:18:52;11.71;73.09
66119;DHT22;52912;48.564;9.302;2023-04-24T08:21:18;11.74;73.95
66119;DHT22;52912;48.564;9.302;2023-04-24T08:23:44;12.30;74.04
66119;DHT22;52912;48.564;9.302;2023-04-24T08:26:09;12.32;72.33
66119;DHT22;52912;48.564;9.302;2023-04-24T08:28:36;12.74;72.14
66119;DHT22;52912;48.564;9.302;2023-04-24T08:31:01;12.95;70.84
66119;DHT22;52912;48.564;9.302;2023-04-24T08:33:27;12.65;71.22
66119;DHT22;52912;48.564;9.302;2023-04-24T08:35:52;12.63;69.68
66119;DHT22;52912;48.564;9.302;2023-04-24T08:38:18;12.67;69.71
66119;DHT22;52912;48.564;9.302;2023-04-24T08:40:43;12.33;69.43
66119;DHT22;52912;48.564;9.302;2023-04-24T08:43:10;11.94;69.89
66119;DHT22;52912;48.564;9.302;2023-04-24T08:45:37;12.06;69.75
66119;DHT22;52912;48.564;9.302;2023-04-24T08:48:04;11.88;69.13
66119;DHT22;52912;48.564;9.302;2023-04-24T08:50:29;11.91;69.54
66119;DHT22;52912;48.564;9.302;2023-04-24T08:52:56;11.92;68.85
66119;DHT22;52912;48.564;9.302;2023-04-24T08:55:24;11.78;69.49
66119;DHT22;52912;48.564;9.302;2023-04-24T08:57:51;11.92;69.92
66119;DHT22;52912;48.564;9.302;2023-04-24T09:00:18;12.16;69.20
66119;DHT22;52912;48.564;9.302;2023-04-24T09:02:45;12.91;67.08
66119;DHT22;52912;48.564;9.302;2023-04-24T09:05:12;13.13;66.85
66119;DHT22;52912;48.564;9.302;2023-04-24T09:07:39;13.06;66.74
66119;DHT22;52912;48.564;9.302;2023-04-24T09:10:07;13.37;65.68
66119;DHT22;52912;48.564;9.302;2023-04-24T09:12:32;13.48;65.23
66119;DHT22;52912;48.564;9.302;2023-04-24T09:14:58;13.78;64.87
66119;DHT22;52912;48.564;9.302;2023-04-24T09:17:25;13.77;64.76
66119;DHT22;52912;48.564;9.302;2023-04-24T09:19:52;13.09;64.71
66119;DHT22;52912;48.564;9.302;2023-04-24T09:22:18;13.58;64.37
66119;DHT22;52912;48.564;9.302;2023-04-24T09:24:45;14.10;61.83
66119;DHT22;52912;48.564;9.302;2023-04-24T09:27:11;14.38;62.23
66119;DHT22;52912;48.564;9.302;2023-04-24T09:29:36;14.38;59.88
66119;DHT22;52912;48.564;9.302;2023-04-24T09:32:20;14.63;61.02
66119;DHT22;52912;48.564;9.302;2023-04-24T09:34:46;14.68;61.11
66119;DHT22;52912;48.564;9.302;2023-04-24T09:37:27;14.60;60.83
66119;DHT22;52912;48.564;9.302;2023-04-24T09:40:07;14.82;60.83
66119;DHT22;52912;48.564;9.302;2023-04-24T09:42:33;15.10;61.10
66119;DHT22;52912;48.564;9.302;2023-04-24T09:44:58;15.27;59.60
66119;DHT22;52912;48.564;9.302;2023-04-24T09:47:24;14.56;61.74
66119;DHT22;52912;48.564;9.302;2023-04-24T09:49:49;14.12;62.22
66119;DHT22;52912;48.564;9.302;2023-04-24T09:52:16;13.58;63.96
66119;DHT22;52912;48.564;9.302;2023-04-24T09:54:41;13.35;64.94
66119;DHT22;52912;48.564;9.302;2023-04-24T09:57:07;13.08;65.77
66119;DHT22;52912;48.564;9.302;2023-04-24T09:59:33;13.01;66.71
66119;DHT22;52912;48.564;9.302;2023-04-24T10:01:59;13.18;65.95
66119;DHT22;52912;48.564;9.302;2023-04-24T10:04:25;13.12;65.93
66119;DHT22;52912;48.564;9.302;2023-04-24T10:06:53;12.75;66.24
66119;DHT22;52912;48.564;9.302;2023-04-24T10:09:21;12.65;65.03
66119;DHT22;52912;48.564;9.302;2023-04-24T10:11:50;12.81;65.12
66119;DHT22;52912;48.564;9.302;2023-04-24T10:14:18;12.77;65.16
66119;DHT22;52912;48.564;9.302;2023-04-24T10:16:44;12.57;64.48
66119;DHT22;52912;48.564;9.302;2023-04-24T10:19:09;13.22;63.70
66119;DHT22;52912;48.564;9.302;2023-04-24T10:21:35;14.26;62.03
66119;DHT22;52912;48.564;9.302;2023-04-24T10:24:01;14.61;61.22
66119;DHT22;52912;48.564;9.302;2023-04-24T10:26:28;13.82;60.31
66119;DHT22;52912;48.564;9.302;2023-04-24T10:28:54;13.46;62.11
66119;DHT22;52912;48.564;9.302;2023-04-24T10:31:20;13.68;61.66
66119;DHT22;52912;48.564;9.302;2023-04-24T10:33:46;14.70;59.30
66119;DHT22;52912;48.564;9.302;2023-04-24T10:36:13;14.68;59.70
66119;DHT22;52912;48.564;9.302;2023-04-24T10:38:41;14.43;60.30
66119;DHT22;52912;48.564;9.302;2023-04-24T10:41:08;13.70;59.89
66119;DHT22;52912;48.564;9.302;2023-04-24T10:43:35;13.67;60.80
66119;DHT22;52912;48.564;9.302;2023-04-24T10:46:01;13.71;61.68
66119;DHT22;52912;48.564;9.302;2023-04-24T10:48:27;13.63;61.04
66119;DHT22;52912;48.564;9.302;2023-04-24T10:50:53;13.39;61.20
66119;DHT22;52912;48.564;9.302;2023-04-24T10:53:20;13.39;61.37
66119;DHT22;52912;48.564;9.302;2023-04-24T10:55:48;13.51;61.48
66119;DHT22;52912;48.564;9.302;2023-04-24T10:58:14;13.47;62.50
66119;DHT22;52912;48.564;9.302;2023-04-24T11:00:41;13.47;62.40
66119;DHT22;52912;48.564;9.302;2023-04-24T11:03:22;13.13;62.92
66119;DHT22;52912;48.564;9.302;2023-04-24T11:05:50;13.03;64.05
66119;DHT22;52912;48.564;9.302;2023-04-24T11:08:22;13.30;64.97
66119;DHT22;52912;48.564;9.302;2023-04-24T11:10:57;13.30;64.40
66119;DHT22;52912;48.564;9.302;2023-04-24T11:13:23;13.12;64.31
66119;DHT22;52912;48.564;9.302;2023-04-24T11:16:16;13.24;64.76
66119;DHT22;52912;48.564;9.302;2023-04-24T11:18:45;13.24;64.45
66119;DHT22;52912;48.564;9.302;2023-04-24T11:21:11;13.24;64.55
66119;DHT22;52912;48.564;9.302;2023-04-24T11:23:36;13.15;64.58
66119;DHT22;52912;48.564;9.302;2023-04-24T11:26:12;13.24;64.65
66119;DHT22;52912;48.564;9.302;2023-04-24T11:28:44;13.05;64.29
66119;DHT22;52912;48.564;9.302;2023-04-24T11:31:36;13.20;64.17
66119;DHT22;52912;48.564;9.302;2023-04-24T11:34:09;13.09;64.79
66119;DHT22;52912;48.564;9.302;2023-04-24T11:36:36;12.85;64.00
66119;DHT22;52912;48.564;9.302;2023-04-24T11:39:01;12.56;65.48
66119;DHT22;52912;48.564;9.302;2023-04-24T11:41:28;12.46;65.14
66119;DHT22;52912;48.564;9.302;2023-04-24T11:43:53;12.60;66.16
66119;DHT22;52912;48.564;9.302;2023-04-24T11:46:20;12.71;66.15
66119;DHT22;52912;48.564;9.302;2023-04-24T11:48:47;12.37;66.84
66119;DHT22;52912;48.564;9.302;2023-04-24T11:51:13;12.34;67.03
66119;DHT22;52912;48.564;9.302;2023-04-24T11:53:38;12.47;67.87
66119;DHT22;52912;48.564;9.302;2023-04-24T11:56:04;12.49;66.36
66119;DHT22;52912;48.564;9.302;2023-04-24T11:58:34;12.46;66.47
66119;DHT22;52912;48.564;9.302;2023-04-24T12:01:00;12.68;66.20
66119;DHT22;52912;48.564;9.302;2023-04-24T12:03:25;12.40;66.45
66119;DHT22;52912;48.564;9.302;2023-04-24T12:05:52;12.47;64.88
66119;DHT22;52912;48.564;9.302;2023-04-24T12:08:27;12.71;64.08
66119;DHT22;52912;48.564;9.302;2023-04-24T12:10:52;13.05;64.26
66119;DHT22;52912;48.564;9.302;2023-04-24T12:13:18;13.36;63.50
66119;DHT22;52912;48.564;9.302;2023-04-24T12:15:43;13.30;63.46
66119;DHT22;52912;48.564;9.302;2023-04-24T12:18:11;13.18;63.46
66119;DHT22;52912;48.564;9.302;2023-04-24T12:20:37;12.78;63.38
66119;DHT22;52912;48.564;9.302;2023-04-24T12:23:04;12.71;64.25
66119;DHT22;52912;48.564;9.302;2023-04-24T12:25:31;12.73;63.91
66119;DHT22;52912;48.564;9.302;2023-04-24T12:28:09;12.69;65.50
66119;DHT22;52912;48.564;9.302;2023-04-24T12:30:44;12.57;65.16
66119;DHT22;52912;48.564;9.302;2023-04-24T12:33:10;12.13;66.21
66119;DHT22;52912;48.564;9.302;2023-04-24T12:35:35;12.21;67.16
66119;DHT22;52912;48.564;9.302;2023-04-24T12:38:09;12.28;66.89
66119;DHT22;52912;48.564;9.302;2023-04-24T12:40:35;12.33;67.21
66119;DHT22;52912;48.564;9.302;2023-04-24T12:43:00;12.37;67.48
66119;DHT22;52912;48.564;9.302;2023-04-24T12:45:26;12.28;66.58
66119;DHT22;52912;48.564;9.302;2023-04-24T12:47:51;12.11;67.36
66119;DHT22;52912;48.564;9.302;2023-04-24T12:50:17;12.08;67.60
66119;DHT22;52912;48.564;9.302;2023-04-24T12:52:44;12.12;67.53
66119;DHT22;52912;48.564;9.302;2023-04-24T12:55:11;12.19;67.51
66119;DHT22;52912;48.564;9.302;2023-04-24T12:57:38;11.88;65.67
66119;DHT22;52912;48.564;9.302;2023-04-24T13:00:06;12.09;65.69
66119;DHT22;52912;48.564;9.302;2023-04-24T13:02:33;11.98;65.94
66119;DHT22;52912;48.564;9.302;2023-04-24T13:04:58;12.26;66.14
66119;DHT22;52912;48.564;9.302;2023-04-24T13:07:24;12.46;65.48
66119;DHT22;52912;48.564;9.302;2023-04-24T13:09:50;12.49;65.23
66119;DHT22;52912;48.564;9.302;2023-04-24T13:12:18;13.01;63.81
66119;DHT22;52912;48.564;9.302;2023-04-24T13:14:43;13.35;64.61
66119;DHT22;52912;48.564;9.302;2023-04-24T13:17:09;13.39;63.79
66119;DHT22;52912;48.564;9.302;2023-04-24T13:19:38;13.71;64.19
66119;DHT22;52912;48.564;9.302;2023-04-24T13:22:04;14.29;61.58
66119;DHT22;52912;48.564;9.302;2023-04-24T13:24:30;14.60;61.77
66119;DHT22;52912;48.564;9.302;2023-04-24T13:26:55;14.80;61.02
66119;DHT22;52912;48.564;9.302;2023-04-24T13:29:22;15.72;60.05
66119;DHT22;52912;48.564;9.302;2023-04-24T13:31:50;16.08;58.34
66119;DHT22;52912;48.564;9.302;2023-04-24T13:34:15;16.04;58.22
66119;DHT22;52912;48.564;9.302;2023-04-24T13:36:42;15.19;59.89
66119;DHT22;52912;48.564;9.302;2023-04-24T13:39:07;14.38;60.89
66119;DHT22;52912;48.564;9.302;2023-04-24T13:41:33;13.91;61.34
66119;DHT22;52912;48.564;9.302;2023-04-24T13:43:58;13.48;62.22
66119;DHT22;52912;48.564;9.302;2023-04-24T13:46:25;13.13;62.77
66119;DHT22;52912;48.564;9.302;2023-04-24T13:48:51;13.12;63.63
66119;DHT22;52912;48.564;9.302;2023-04-24T13:51:16;12.71;63.81
66119;DHT22;52912;48.564;9.302;2023-04-24T13:53:42;12.91;64.46
66119;DHT22;52912;48.564;9.302;2023-04-24T13:56:07;12.80;64.64
66119;DHT22;52912;48.564;9.302;2023-04-24T13:58:33;12.98;64.61
66119;DHT22;52912;48.564;9.302;2023-04-24T14:00:58;12.88;64.08
66119;DHT22;52912;48.564;9.302;2023-04-24T14:03:25;12.80;64.88
66119;DHT22;52912;48.564;9.302;2023-04-24T14:05:50;12.85;63.92
66119;DHT22;52912;48.564;9.302;2023-04-24T14:08:16;12.69;64.03
66119;DHT22;52912;48.564;9.302;2023-04-24T14:10:42;12.53;64.33
66119;DHT22;52912;48.564;9.302;2023-04-24T14:13:08;12.67;65.47
66119;DHT22;52912;48.564;9.302;2023-04-24T14:15:35;12.64;65.59
66119;DHT22;52912;48.564;9.302;2023-04-24T14:18:00;12.57;65.22
66119;DHT22;52912;48.564;9.302;2023-04-24T14:20:27;12.50;65.27
66119;DHT22;52912;48.564;9.302;2023-04-24T14:22:53;12.57;64.35
66119;DHT22;52912;48.564;9.302;2023-04-24T14:25:18;12.61;63.79
66119;DHT22;52912;48.564;9.302;2023-04-24T14:27:44;12.61;64.35
66119;DHT22;52912;48.564;9.302;2023-04-24T14:30:10;12.60;65.15
66119;DHT22;52912;48.564;9.302;2023-04-24T14:32:35;12.51;64.48
66119;DHT22;52912;48.564;9.302;2023-04-24T14:35:01;12.54;64.69
66119;DHT22;52912;48.564;9.302;2023-04-24T14:37:28;12.50;64.46
66119;DHT22;52912;48.564;9.302;2023-04-24T14:39:53;12.51;64.84
66119;DHT22;52912;48.564;9.302;2023-04-24T14:42:19;12.47;64.60
66119;DHT22;52912;48.564;9.302;2023-04-24T14:44:44;12.51;65.27
66119;DHT22;52912;48.564;9.302;2023-04-24T14:47:10;12.57;64.47
66119;DHT22;52912;48.564;9.302;2023-04-24T14:49:35;12.57;65.05
66119;DHT22;52912;48.564;9.302;2023-04-24T14:52:00;12.64;65.54
66119;DHT22;52912;48.564;9.302;2023-04-24T14:54:27;12.50;65.12
66119;DHT22;52912;48.564;9.302;2023-04-24T14:56:54;12.60;65.19
66119;DHT22;52912;48.564;9.302;2023-04-24T14:59:19;12.67;65.25
66119;DHT22;52912;48.564;9.302;2023-04-24T15:01:45;12.51;65.31
66119;DHT22;52912;48.564;9.302;2023-04-24T15:04:10;12.47;64.42
66119;DHT22;52912;48.564;9.302;2023-04-24T15:06:35;12.28;64.54
66119;DHT22;52912;48.564;9.302;2023-04-24T15:09:01;12.43;64.89
66119;DHT22;52912;48.564;9.302;2023-04-24T15:11:28;12.49;63.89
66119;DHT22;52912;48.564;9.302;2023-04-24T15:13:53;12.33;65.53
66119;DHT22;52912;48.564;9.302;2023-04-24T15:16:19;12.46;66.20
66119;DHT22;52912;48.564;9.302;2023-04-24T15:18:44;12.32;65.97
66119;DHT22;52912;48.564;9.302;2023-04-24T15:21:09;12.43;65.96
66119;DHT22;52912;48.564;9.302;2023-04-24T15:23:35;12.57;65.70
66119;DHT22;52912;48.564;9.302;2023-04-24T15:26:00;12.63;64.45